createdAt,value
2022-10-18T00:00:54.286Z,101809.38
2022-10-18T00:03:26.331Z,101805.88
2022-10-18T00:05:57.838Z,101810.56
2022-10-18T00:08:29.686Z,101816.88
2022-10-18T00:11:01.209Z,101820.50
2022-10-18T00:13:33.059Z,101821.34
2022-10-18T00:16:04.563Z,101821.56
2022-10-18T00:18:36.412Z,101824.38
2022-10-18T00:21:08.470Z,101822.50
2022-10-18T00:23:40.286Z,101820.66
2022-10-18T00:26:11.840Z,101829.31
2022-10-18T00:28:43.869Z,101829.31
2022-10-18T00:31:15.414Z,101828.38
2022-10-18T00:33:47.245Z,101828.97
2022-10-18T00:36:18.793Z,101829.56
2022-10-18T00:38:50.861Z,101834.34
2022-10-18T00:41:22.347Z,101839.88
2022-10-18T00:43:54.215Z,101836.56
2022-10-18T00:46:25.740Z,101831.00
2022-10-18T00:48:57.590Z,101841.13
2022-10-18T00:51:29.080Z,101838.25
2022-10-18T00:54:00.752Z,101841.97
2022-10-18T00:56:32.234Z,101830.19
2022-10-18T00:59:04.022Z,101833.28
2022-10-18T01:01:35.570Z,101833.06
2022-10-18T01:04:07.393Z,101829.94
2022-10-18T01:06:38.878Z,101839.06
2022-10-18T01:09:11.050Z,101843.41
2022-10-18T01:11:42.530Z,101853.19
2022-10-18T01:14:14.526Z,101865.22
2022-10-18T01:16:46.052Z,101855.75
2022-10-18T01:19:17.914Z,101854.47
2022-10-18T01:21:49.457Z,101854.00
2022-10-18T01:24:21.289Z,101849.84
2022-10-18T01:26:52.775Z,101845.28
2022-10-18T01:29:24.595Z,101841.53
2022-10-18T01:31:57.666Z,101834.94
2022-10-18T01:34:31.346Z,101831.66
2022-10-18T01:37:03.278Z,101826.28
2022-10-18T01:39:34.813Z,101828.50
2022-10-18T01:42:06.692Z,101827.91
2022-10-18T01:44:38.190Z,101832.25
2022-10-18T01:47:10.073Z,101830.00
2022-10-18T01:49:41.569Z,101839.97
2022-10-18T01:52:13.982Z,101836.22
2022-10-18T01:54:45.498Z,101837.50
2022-10-18T01:57:16.993Z,101843.00
2022-10-18T01:59:48.497Z,101839.59
2022-10-18T02:02:20.300Z,101835.88
2022-10-18T02:04:51.816Z,101837.84
2022-10-18T02:07:23.622Z,101841.38
2022-10-18T02:09:55.105Z,101833.28
2022-10-18T02:12:27.069Z,101836.81
2022-10-18T02:14:58.577Z,101835.41
2022-10-18T02:17:30.494Z,101836.22
2022-10-18T02:20:02.611Z,101836.22
2022-10-18T02:22:34.529Z,101839.50
2022-10-18T02:25:06.068Z,101832.88
2022-10-18T02:27:37.915Z,101831.81
2022-10-18T02:30:09.863Z,101842.34
2022-10-18T02:32:41.727Z,101846.09
2022-10-18T02:35:13.203Z,101841.06
2022-10-18T02:37:45.299Z,101842.00
2022-10-18T02:40:16.793Z,101854.19
2022-10-18T02:42:48.758Z,101857.22
2022-10-18T02:45:20.250Z,101851.59
2022-10-18T02:47:51.790Z,101856.53
2022-10-18T02:50:23.287Z,101863.44
2022-10-18T02:52:55.110Z,101863.66
2022-10-18T02:55:26.587Z,101861.78
2022-10-18T02:57:58.362Z,101862.38
2022-10-18T03:00:29.883Z,101857.81
2022-10-18T03:03:01.852Z,101866.72
2022-10-18T03:05:33.359Z,101861.44
2022-10-18T03:08:05.206Z,101870.34
2022-10-18T03:10:36.695Z,101869.41
2022-10-18T03:13:08.608Z,101869.41
2022-10-18T03:15:40.178Z,101888.38
2022-10-18T03:18:12.034Z,101887.09
2022-10-18T03:20:43.551Z,101885.44
2022-10-18T03:23:15.440Z,101878.88
2022-10-18T03:25:46.930Z,101873.84
2022-10-18T03:28:18.795Z,101864.81
2022-10-18T03:30:50.283Z,101862.91
2022-10-18T03:33:22.071Z,101869.66
2022-10-18T03:35:53.715Z,101872.34
2022-10-18T03:38:25.618Z,101870.00
2022-10-18T03:40:57.110Z,101862.97
2022-10-18T03:46:21.071Z,101875.69
2022-10-18T03:48:52.896Z,101880.50
2022-10-18T03:51:24.374Z,101869.38
2022-10-18T03:53:56.406Z,101882.00
2022-10-18T03:56:27.900Z,101871.66
2022-10-18T03:58:59.407Z,101867.34
2022-10-18T04:01:30.975Z,101874.97
2022-10-18T04:04:02.998Z,101876.22
2022-10-18T04:06:34.514Z,101878.91
2022-10-18T04:09:09.401Z,101878.09
2022-10-18T04:11:41.794Z,101877.44
2022-10-18T04:14:13.365Z,101873.09
2022-10-18T04:16:44.877Z,101873.94
2022-10-18T04:19:16.738Z,101883.03
2022-10-18T04:21:48.250Z,101883.28
2022-10-18T04:24:20.171Z,101889.31
2022-10-18T04:26:51.659Z,101887.31
2022-10-18T04:29:23.458Z,101882.75
2022-10-18T04:31:54.943Z,101877.72
2022-10-18T04:34:26.795Z,101863.22
2022-10-18T04:36:58.787Z,101874.00
2022-10-18T04:39:30.321Z,101876.53
2022-10-18T04:42:02.337Z,101890.22
2022-10-18T04:44:34.398Z,101885.88
2022-10-18T04:47:06.240Z,101881.91
2022-10-18T04:49:37.942Z,101879.22
2022-10-18T04:52:10.323Z,101868.25
2022-10-18T04:54:41.812Z,101877.38
2022-10-18T04:57:13.677Z,101876.19
2022-10-18T04:59:45.186Z,101886.56
2022-10-18T05:02:17.065Z,101887.38
2022-10-18T05:04:48.568Z,101884.00
2022-10-18T05:07:20.371Z,101869.16
2022-10-18T05:09:51.918Z,101868.78
2022-10-18T05:12:23.804Z,101862.13
2022-10-18T05:14:56.808Z,101847.66
2022-10-18T05:17:28.897Z,101855.94
2022-10-18T05:20:00.521Z,101867.75
2022-10-18T05:22:32.623Z,101871.72
2022-10-18T05:25:04.308Z,101867.97
2022-10-18T05:27:36.166Z,101870.53
2022-10-18T05:30:07.721Z,101872.75
2022-10-18T05:32:39.239Z,101864.69
2022-10-18T05:35:10.740Z,101864.22
2022-10-18T05:37:42.641Z,101858.84
2022-10-18T05:40:14.155Z,101865.72
2022-10-18T05:42:45.963Z,101859.16
2022-10-18T05:45:17.469Z,101868.28
2022-10-18T05:47:49.267Z,101874.72
2022-10-18T05:50:20.757Z,101881.38
2022-10-18T05:52:52.701Z,101889.66
2022-10-18T05:55:24.210Z,101888.47
2022-10-18T05:57:56.035Z,101893.63
2022-10-18T06:00:27.568Z,101887.56
2022-10-18T06:03:00.477Z,101880.16
2022-10-18T06:05:32.294Z,101876.28
2022-10-18T06:08:06.585Z,101872.97
2022-10-18T06:10:41.661Z,101866.56
2022-10-18T06:13:13.681Z,101868.66
2022-10-18T06:15:45.288Z,101874.22
2022-10-18T06:18:17.251Z,101866.56
2022-10-18T06:20:48.752Z,101859.53
2022-10-18T06:23:20.735Z,101855.84
2022-10-18T06:25:52.231Z,101856.44
2022-10-18T06:28:23.757Z,101862.88
2022-10-18T06:30:55.312Z,101866.25
2022-10-18T06:33:27.186Z,101860.63
2022-10-18T06:35:58.756Z,101857.34
2022-10-18T06:38:30.250Z,101857.94
2022-10-18T06:41:02.202Z,101855.84
2022-10-18T06:43:33.703Z,101855.84
2022-10-18T06:46:07.143Z,101866.59
2022-10-18T06:48:38.648Z,101872.34
2022-10-18T06:51:10.561Z,101871.66
2022-10-18T06:53:44.410Z,101869.94
2022-10-18T06:56:24.919Z,101868.56
2022-10-18T06:58:56.412Z,101863.28
2022-10-18T07:01:31.188Z,101875.53
2022-10-18T07:04:02.747Z,101876.66
2022-10-18T07:06:34.560Z,101876.06
2022-10-18T07:09:06.067Z,101883.72
2022-10-18T07:11:38.113Z,101891.38
2022-10-18T07:14:12.559Z,101891.38
2022-10-18T07:16:47.280Z,101899.13
2022-10-18T07:19:18.777Z,101908.31
2022-10-18T07:21:50.729Z,101908.00
2022-10-18T07:24:22.273Z,101908.66
2022-10-18T07:26:54.228Z,101922.38
2022-10-18T07:29:25.699Z,101924.25
2022-10-18T07:31:57.634Z,101918.19
2022-10-18T07:34:29.107Z,101926.63
2022-10-18T07:37:00.909Z,101934.00
2022-10-18T07:39:32.411Z,101937.66
2022-10-18T07:42:04.216Z,101940.81
2022-10-18T07:44:35.773Z,101937.66
2022-10-18T07:47:07.857Z,101938.78
2022-10-18T07:49:39.380Z,101935.94
2022-10-18T07:52:11.232Z,101943.94
2022-10-18T07:54:42.742Z,101939.00
2022-10-18T07:57:14.556Z,101929.28
2022-10-18T07:59:48.075Z,101932.84
2022-10-18T08:02:20.247Z,101926.53
2022-10-18T08:04:51.755Z,101927.19
2022-10-18T08:07:23.586Z,101928.06
2022-10-18T08:09:55.099Z,101923.91
2022-10-18T08:12:26.929Z,101923.31
2022-10-18T08:14:58.446Z,101930.63
2022-10-18T08:17:30.500Z,101924.06
2022-10-18T08:20:12.142Z,101924.88
2022-10-18T08:22:51.417Z,101924.78
2022-10-18T08:25:22.993Z,101922.19
2022-10-18T08:27:54.903Z,101926.06
2022-10-18T08:30:26.448Z,101925.63
2022-10-18T08:32:58.423Z,101928.63
2022-10-18T08:35:30.475Z,101925.13
2022-10-18T08:38:01.958Z,101927.44
2022-10-18T08:40:35.122Z,101926.50
2022-10-18T08:43:07.128Z,101926.13
2022-10-18T08:45:43.213Z,101922.16
2022-10-18T08:48:14.937Z,101926.34
2022-10-18T08:50:46.750Z,101925.84
2022-10-18T08:53:18.230Z,101918.97
2022-10-18T08:55:52.704Z,101927.56
2022-10-18T08:58:24.664Z,101926.97
2022-10-18T09:00:56.488Z,101924.94
2022-10-18T09:03:28.010Z,101925.94
2022-10-18T09:06:00.088Z,101913.09
2022-10-18T09:08:31.582Z,101920.09
2022-10-18T09:11:03.456Z,101917.28
2022-10-18T09:13:34.949Z,101922.88
2022-10-18T09:16:06.834Z,101930.56
2022-10-18T09:18:38.309Z,101928.72
2022-10-18T09:21:09.826Z,101928.72
2022-10-18T09:23:41.361Z,101927.22
2022-10-18T09:26:12.884Z,101926.38
2022-10-18T09:28:44.501Z,101924.28
2022-10-18T09:31:16.699Z,101925.94
2022-10-18T09:33:48.187Z,101919.56
2022-10-18T09:36:20.077Z,101691.13
2022-10-18T09:38:51.588Z,101927.03
2022-10-18T09:41:23.096Z,101921.75
2022-10-18T09:43:54.626Z,101930.25
2022-10-18T09:46:26.507Z,101923.81
2022-10-18T09:48:58.049Z,101926.50
2022-10-18T09:51:29.877Z,101920.94
2022-10-18T09:54:01.382Z,101920.53
2022-10-18T09:56:36.688Z,101923.00
2022-10-18T09:59:10.996Z,101928.22
2022-10-18T10:01:42.848Z,101929.41
2022-10-18T10:04:15.377Z,101929.88
2022-10-18T10:06:47.380Z,101930.41
2022-10-18T10:09:18.919Z,101925.16
2022-10-18T10:11:50.815Z,101925.25
2022-10-18T10:14:26.896Z,101928.91
2022-10-18T10:16:58.405Z,101926.44
2022-10-18T10:19:30.332Z,101932.19
2022-10-18T10:22:01.832Z,101935.63
2022-10-18T10:24:33.637Z,101931.06
2022-10-18T10:27:05.192Z,101931.47
2022-10-18T10:29:44.492Z,101932.09
2022-10-18T10:32:16.556Z,101924.50
2022-10-18T10:34:48.520Z,101918.16
2022-10-18T10:37:20.223Z,101915.78
2022-10-18T10:40:13.755Z,101915.00
2022-10-18T10:42:43.562Z,101911.41
2022-10-18T10:45:15.406Z,101911.13
2022-10-18T10:47:46.903Z,101907.25
2022-10-18T10:50:18.751Z,101898.50
2022-10-18T10:52:50.270Z,101894.91
2022-10-18T10:55:34.969Z,101895.28
2022-10-18T10:58:07.017Z,101892.00
2022-10-18T11:00:38.848Z,101883.59
2022-10-18T11:03:27.354Z,101877.50
2022-10-18T11:06:01.243Z,101866.50
2022-10-18T11:08:32.821Z,101873.63
2022-10-18T11:11:04.712Z,101876.00
2022-10-18T11:13:39.209Z,101882.94
2022-10-18T11:16:11.153Z,101878.00
2022-10-18T11:18:43.823Z,101875.16
2022-10-18T11:21:15.796Z,101872.84
2022-10-18T11:23:47.325Z,101869.25
2022-10-18T11:26:19.133Z,101884.19
2022-10-18T11:28:50.731Z,101882.19
2022-10-18T11:31:22.577Z,101881.03
2022-10-18T11:34:08.621Z,101890.72
2022-10-18T11:36:46.204Z,101887.00
2022-10-18T11:39:28.436Z,101860.03
2022-10-18T11:41:59.948Z,101857.22
2022-10-18T11:44:31.839Z,101874.03
2022-10-18T11:47:03.345Z,101869.72
2022-10-18T11:49:35.266Z,101873.81
2022-10-18T11:52:08.952Z,101870.38
2022-10-18T11:54:41.443Z,101871.13
2022-10-18T11:57:12.918Z,101865.47
2022-10-18T11:59:44.414Z,101861.72
2022-10-18T12:02:15.908Z,101867.72
2022-10-18T12:04:58.387Z,101862.69
2022-10-18T12:07:39.402Z,101854.94
2022-10-18T12:10:11.216Z,101861.13
2022-10-18T12:12:42.728Z,101852.72
2022-10-18T12:15:14.537Z,101852.72
2022-10-18T12:17:49.825Z,101846.63
2022-10-18T12:20:22.031Z,101860.22
2022-10-18T12:22:53.577Z,101860.56
2022-10-18T12:25:25.341Z,101845.47
2022-10-18T12:27:56.960Z,101845.00
2022-10-18T12:30:28.817Z,101848.53
2022-10-18T12:33:03.709Z,101847.22
2022-10-18T12:35:42.057Z,101844.06
2022-10-18T12:38:13.579Z,101848.63
2022-10-18T12:40:45.136Z,101848.53
2022-10-18T12:43:16.623Z,101851.53
2022-10-18T12:45:48.444Z,101837.63
2022-10-18T12:48:19.935Z,101830.72
2022-10-18T12:50:51.756Z,101837.50
2022-10-18T12:53:23.237Z,101835.75
2022-10-18T12:55:55.174Z,101835.16
2022-10-18T12:58:26.659Z,101834.00
2022-10-18T13:00:58.512Z,101838.22
2022-10-18T13:03:31.147Z,101834.75
2022-10-18T13:06:06.648Z,101837.56
2022-10-18T13:08:39.674Z,101837.91
2022-10-18T13:11:11.193Z,101836.50
2022-10-18T13:13:42.792Z,101838.53
2022-10-18T13:16:14.298Z,101838.69
2022-10-18T13:18:46.133Z,101826.03
2022-10-18T13:21:17.708Z,101842.31
2022-10-18T13:23:49.574Z,101834.47
2022-10-18T13:26:21.087Z,101834.94
2022-10-18T13:28:53.044Z,101834.31
2022-10-18T13:31:24.614Z,101841.16
2022-10-18T13:33:56.433Z,101840.28
2022-10-18T13:36:29.353Z,101840.50
2022-10-18T13:39:04.352Z,101840.84
2022-10-18T13:41:35.867Z,101847.84
2022-10-18T13:44:07.828Z,101842.16
2022-10-18T13:46:39.355Z,101839.75
2022-10-18T13:49:11.169Z,101840.78
2022-10-18T13:51:42.730Z,101837.63
2022-10-18T13:54:14.737Z,101844.75
2022-10-18T13:56:46.285Z,101846.94
2022-10-18T13:59:18.113Z,101840.03
2022-10-18T14:01:52.943Z,101839.78
2022-10-18T14:04:25.027Z,101843.06
2022-10-18T14:07:01.284Z,101849.66
2022-10-18T14:09:44.428Z,101841.47
2022-10-18T14:12:16.779Z,101852.22
2022-10-18T14:14:48.595Z,101851.97
2022-10-18T14:17:20.115Z,101860.03
2022-10-18T14:19:52.148Z,101865.75
2022-10-18T14:22:23.703Z,101859.19
2022-10-18T14:24:55.569Z,101863.50
2022-10-18T14:27:27.079Z,101865.75
2022-10-18T14:29:58.625Z,101871.63
2022-10-18T14:32:30.134Z,101875.19
2022-10-18T14:35:30.539Z,101878.47
2022-10-18T14:37:53.525Z,101874.94
2022-10-18T14:40:25.391Z,101875.38
2022-10-18T14:42:56.869Z,101884.31
2022-10-18T14:45:28.891Z,101876.16
2022-10-18T14:48:00.685Z,101881.56
2022-10-18T14:50:32.196Z,101884.16
2022-10-18T14:53:03.996Z,101878.53
2022-10-18T14:55:36.058Z,101882.34
2022-10-18T14:58:07.560Z,101877.56
2022-10-18T15:00:39.077Z,101874.44
2022-10-18T15:03:10.888Z,101874.16
2022-10-18T15:05:42.370Z,101877.28
2022-10-18T15:08:13.879Z,101874.28
2022-10-18T15:10:45.579Z,101868.66
2022-10-18T15:13:17.506Z,101871.75
2022-10-18T15:15:49.234Z,101870.78
2022-10-18T15:18:21.296Z,101871.19
2022-10-18T15:20:52.808Z,101865.78
2022-10-18T15:23:24.403Z,101863.75
2022-10-18T15:25:55.889Z,101874.09
2022-10-18T15:28:27.432Z,101872.84
2022-10-18T15:30:59.074Z,101881.22
2022-10-18T15:33:36.931Z,101876.91
2022-10-18T15:36:08.421Z,101880.50
2022-10-18T15:38:40.463Z,101883.50
2022-10-18T15:41:11.936Z,101880.88
2022-10-18T15:43:43.913Z,101872.88
2022-10-18T15:46:15.423Z,101873.75
2022-10-18T15:48:47.738Z,101877.34
2022-10-18T15:51:19.215Z,101873.06
2022-10-18T15:53:51.170Z,101875.00
2022-10-18T15:56:22.663Z,101883.34
2022-10-18T15:58:55.554Z,101884.00
2022-10-18T16:01:27.124Z,101891.88
2022-10-18T16:03:58.923Z,101895.44
2022-10-18T16:06:30.508Z,101889.31
2022-10-18T16:09:02.460Z,101894.97
2022-10-18T16:11:33.954Z,101890.25
2022-10-18T16:14:05.530Z,101886.56
2022-10-18T16:16:37.037Z,101874.44
2022-10-18T16:19:08.785Z,101873.03
2022-10-18T16:21:40.282Z,101891.41
2022-10-18T16:24:12.123Z,101899.91
2022-10-18T16:26:43.614Z,101902.19
2022-10-18T16:29:15.640Z,101897.91
2022-10-18T16:31:47.222Z,101891.13
2022-10-18T16:34:19.035Z,101897.13
2022-10-18T16:36:50.525Z,101896.56
2022-10-18T16:39:22.399Z,101906.06
2022-10-18T16:41:53.959Z,101904.03
2022-10-18T16:44:25.841Z,101913.97
2022-10-18T16:46:57.344Z,101914.38
2022-10-18T16:49:28.854Z,101907.38
2022-10-18T16:52:00.329Z,101914.19
2022-10-18T16:54:32.208Z,101922.88
2022-10-18T16:57:03.697Z,101914.44
2022-10-18T16:59:35.192Z,101915.47
2022-10-18T17:02:09.199Z,101915.09
2022-10-18T17:04:41.026Z,101920.03
2022-10-18T17:07:12.872Z,101915.28
2022-10-18T17:09:44.857Z,101918.38
2022-10-18T17:12:16.403Z,101925.78
2022-10-18T17:14:48.235Z,101921.06
2022-10-18T17:17:19.739Z,101913.88
2022-10-18T17:19:51.561Z,101919.66
2022-10-18T17:22:23.046Z,101917.56
2022-10-18T17:24:54.986Z,101924.56
2022-10-18T17:27:26.491Z,101920.03
2022-10-18T17:29:58.017Z,101766.06
2022-10-18T17:32:29.827Z,101930.53
2022-10-18T17:35:01.329Z,101930.53
2022-10-18T17:37:33.386Z,101918.38
2022-10-18T17:40:05.396Z,101921.69
2022-10-18T17:42:37.479Z,101923.53
2022-10-18T17:45:09.021Z,101922.91
2022-10-18T17:47:40.562Z,101927.84
2022-10-18T17:50:12.114Z,101929.69
2022-10-18T17:55:20.378Z,101936.09
2022-10-18T17:57:52.263Z,101930.69
2022-10-18T18:00:24.615Z,101930.91
2022-10-18T18:02:56.466Z,101935.00
2022-10-18T18:05:28.066Z,101938.91
2022-10-18T18:08:03.666Z,101937.88
2022-10-18T18:10:35.978Z,101936.66
2022-10-18T18:13:07.865Z,101938.72
2022-10-18T18:15:39.350Z,101938.50
2022-10-18T18:18:11.423Z,101945.50
2022-10-18T18:20:42.916Z,101943.84
2022-10-18T18:23:14.779Z,101943.00
2022-10-18T18:25:46.274Z,101946.91
2022-10-18T18:28:18.126Z,101950.63
2022-10-18T18:30:49.677Z,101956.19
2022-10-18T18:33:21.452Z,101955.56
2022-10-18T18:35:52.932Z,101950.41
2022-10-18T18:38:24.800Z,101954.50
2022-10-18T18:40:56.281Z,101953.22
2022-10-18T18:43:28.122Z,101955.50
2022-10-18T18:45:59.704Z,101956.28
2022-10-18T18:48:31.250Z,101955.25
2022-10-18T18:51:03.288Z,101952.34
2022-10-18T18:53:35.018Z,101958.72
2022-10-18T18:56:06.564Z,101958.94
2022-10-18T18:58:38.120Z,101961.38
2022-10-18T19:01:10.117Z,101955.59
2022-10-18T19:03:42.840Z,101962.53
2022-10-18T19:06:16.201Z,101960.47
2022-10-18T19:08:47.887Z,101954.69
2022-10-18T19:11:19.782Z,101964.91
2022-10-18T19:13:51.263Z,101959.97
2022-10-18T19:16:22.860Z,101961.19
2022-10-18T19:18:54.428Z,101956.25
2022-10-18T19:21:26.073Z,101956.63
2022-10-18T19:23:57.652Z,101960.91
2022-10-18T19:26:29.233Z,101961.13
2022-10-18T19:29:00.977Z,101963.38
2022-10-18T19:31:33.498Z,101963.72
2022-10-18T19:34:05.025Z,101969.47
2022-10-18T19:36:36.948Z,101964.31
2022-10-18T19:39:08.451Z,101969.22
2022-10-18T19:41:39.993Z,101976.59
2022-10-18T19:44:11.495Z,101972.47
2022-10-18T19:46:43.000Z,101976.38
2022-10-18T19:49:14.535Z,101976.56
2022-10-18T19:51:46.457Z,101984.75
2022-10-18T19:54:17.955Z,101980.19
2022-10-18T19:56:49.785Z,101987.78
2022-10-18T19:59:22.523Z,101997.00
2022-10-18T20:01:54.382Z,101997.00
2022-10-18T20:04:25.876Z,102001.13
2022-10-18T20:06:57.665Z,102000.94
2022-10-18T20:09:29.248Z,102010.59
2022-10-18T20:12:01.216Z,102008.56
2022-10-18T20:14:32.750Z,102012.63
2022-10-18T20:17:05.947Z,102011.81
2022-10-18T20:19:37.488Z,102015.88
2022-10-18T20:22:09.546Z,102011.28
2022-10-18T20:24:41.086Z,102013.50
2022-10-18T20:27:12.615Z,102015.72
2022-10-18T20:29:44.178Z,102021.47
2022-10-18T20:32:15.703Z,102020.19
2022-10-18T20:34:47.195Z,102021.59
2022-10-18T20:37:19.130Z,102017.66
2022-10-18T20:39:50.632Z,102021.91
2022-10-18T20:42:22.590Z,102026.16
2022-10-18T20:44:54.142Z,102024.03
2022-10-18T20:47:26.125Z,102027.09
2022-10-18T20:49:57.633Z,102029.31
2022-10-18T20:52:29.656Z,101789.69
2022-10-18T20:55:01.191Z,102022.63
2022-10-18T20:57:35.678Z,102032.66
2022-10-18T21:00:10.026Z,102026.06
2022-10-18T21:02:41.819Z,102027.25
2022-10-18T21:05:13.372Z,102024.13
2022-10-18T21:07:44.885Z,102025.34
2022-10-18T21:10:16.378Z,102028.19
2022-10-18T21:12:48.335Z,102012.53
2022-10-18T21:15:19.829Z,102015.59
2022-10-18T21:17:51.989Z,102014.31
2022-10-18T21:20:23.482Z,102012.56
2022-10-18T21:22:57.314Z,102013.78
2022-10-18T21:25:28.804Z,102017.81
2022-10-18T21:28:00.637Z,102021.66
2022-10-18T21:30:32.148Z,102019.38
2022-10-18T21:33:04.797Z,102019.09
2022-10-18T21:35:36.403Z,102020.13
2022-10-18T21:38:08.276Z,102016.97
2022-10-18T21:40:44.444Z,102014.22
2022-10-18T21:43:16.321Z,102007.22
2022-10-18T21:45:47.830Z,102008.63
2022-10-18T21:48:19.727Z,102007.03
2022-10-18T21:50:51.248Z,102001.72
2022-10-18T21:53:23.049Z,102005.41
2022-10-18T21:55:54.558Z,102005.84
2022-10-18T21:58:26.379Z,102000.53
2022-10-18T22:00:58.258Z,102008.69
2022-10-18T22:03:29.825Z,102010.06
2022-10-18T22:06:02.508Z,102013.75
2022-10-18T22:08:34.004Z,102013.47
2022-10-18T22:11:05.822Z,102013.03
2022-10-18T22:13:37.314Z,102011.75
2022-10-18T22:16:09.200Z,102007.16
2022-10-18T22:18:40.829Z,102014.50
2022-10-18T22:21:12.648Z,102003.38
2022-10-18T22:23:44.193Z,102004.72
2022-10-18T22:26:16.046Z,102001.78
2022-10-18T22:28:47.619Z,101990.50
2022-10-18T22:31:19.487Z,101997.84
2022-10-18T22:33:51.008Z,101997.19
2022-10-18T22:36:22.869Z,101991.59
2022-10-18T22:38:54.388Z,101987.56
2022-10-18T22:41:26.070Z,101988.56
2022-10-18T22:43:59.750Z,101983.06
2022-10-18T22:46:34.489Z,101987.00
2022-10-18T22:49:05.979Z,101982.41
2022-10-18T22:51:37.865Z,101989.88
2022-10-18T22:54:09.669Z,101994.03
2022-10-18T22:56:41.513Z,101977.31
2022-10-18T22:59:13.024Z,101980.22
2022-10-18T23:01:44.874Z,101982.34
2022-10-18T23:04:16.364Z,101980.31
2022-10-18T23:06:48.217Z,101975.53
2022-10-18T23:09:19.715Z,101979.31
2022-10-18T23:11:53.317Z,101981.41
2022-10-18T23:14:24.831Z,101984.53
2022-10-18T23:16:56.664Z,101976.53
2022-10-18T23:19:28.196Z,101971.22
2022-10-18T23:22:00.105Z,101982.50
2022-10-18T23:24:31.631Z,101983.78
2022-10-18T23:27:03.420Z,101979.97
2022-10-18T23:29:34.934Z,101981.78
2022-10-18T23:32:06.857Z,101981.78
2022-10-18T23:34:38.359Z,101984.66
2022-10-18T23:37:10.290Z,101984.47
2022-10-18T23:39:41.787Z,101986.13
2022-10-18T23:42:13.600Z,101980.78
2022-10-18T23:44:45.122Z,101986.75
2022-10-18T23:47:16.991Z,101980.47
2022-10-18T23:49:48.513Z,101984.78
2022-10-18T23:52:20.433Z,101977.88
2022-10-18T23:54:51.972Z,101976.16
2022-10-18T23:57:23.793Z,101975.78
2022-10-18T23:59:55.282Z,101981.47
